sensor_id;sensor_type;location;lat;lon;timestamp;P1;durP1;ratioP1;P2;durP2;ratioP2
9716;SDS011;4897;43.570;27.832;2023-07-20T00:01:40;5.50;;;3.95;;
9716;SDS011;4897;43.570;27.832;2023-07-20T00:04:10;6.03;;;4.35;;
9716;SDS011;4897;43.570;27.832;2023-07-20T00:06:38;5.97;;;4.60;;
9716;SDS011;4897;43.570;27.832;2023-07-20T00:09:05;7.75;;;4.20;;
9716;SDS011;4897;43.570;27.832;2023-07-20T00:11:35;6.32;;;4.15;;
9716;SDS011;4897;43.570;27.832;2023-07-20T00:14:03;4.47;;;4.07;;
9716;SDS011;4897;43.570;27.832;2023-07-20T00:16:30;6.00;;;3.83;;
9716;SDS011;4897;43.570;27.832;2023-07-20T00:18:57;5.82;;;3.97;;
9716;SDS011;4897;43.570;27.832;2023-07-20T00:21:23;4.63;;;4.10;;
9716;SDS011;4897;43.570;27.832;2023-07-20T00:23:53;4.65;;;4.22;;
9716;SDS011;4897;43.570;27.832;2023-07-20T00:26:20;5.78;;;4.00;;
9716;SDS011;4897;43.570;27.832;2023-07-20T00:28:48;7.47;;;3.75;;
9716;SDS011;4897;43.570;27.832;2023-07-20T00:31:18;7.20;;;4.03;;
9716;SDS011;4897;43.570;27.832;2023-07-20T00:33:45;8.18;;;3.72;;
9716;SDS011;4897;43.570;27.832;2023-07-20T00:36:12;4.03;;;3.63;;
9716;SDS011;4897;43.570;27.832;2023-07-20T00:38:39;5.47;;;3.67;;
9716;SDS011;4897;43.570;27.832;2023-07-20T00:41:07;6.30;;;4.22;;
9716;SDS011;4897;43.570;27.832;2023-07-20T00:43:34;5.43;;;3.97;;
9716;SDS011;4897;43.570;27.832;2023-07-20T00:46:01;5.75;;;4.18;;
9716;SDS011;4897;43.570;27.832;2023-07-20T00:48:28;6.65;;;3.97;;
9716;SDS011;4897;43.570;27.832;2023-07-20T00:50:56;7.22;;;4.05;;
9716;SDS011;4897;43.570;27.832;2023-07-20T00:53:24;6.05;;;4.25;;
9716;SDS011;4897;43.570;27.832;2023-07-20T00:55:51;5.68;;;3.88;;
9716;SDS011;4897;43.570;27.832;2023-07-20T00:58:19;6.63;;;4.00;;
9716;SDS011;4897;43.570;27.832;2023-07-20T01:00:47;7.68;;;4.32;;
9716;SDS011;4897;43.570;27.832;2023-07-20T01:03:13;7.55;;;4.03;;
9716;SDS011;4897;43.570;27.832;2023-07-20T01:05:42;4.38;;;3.92;;
9716;SDS011;4897;43.570;27.832;2023-07-20T01:08:15;6.32;;;4.15;;
9716;SDS011;4897;43.570;27.832;2023-07-20T01:10:51;5.45;;;4.10;;
9716;SDS011;4897;43.570;27.832;2023-07-20T01:13:25;6.07;;;4.45;;
9716;SDS011;4897;43.570;27.832;2023-07-20T01:15:53;6.40;;;4.40;;
9716;SDS011;4897;43.570;27.832;2023-07-20T01:18:23;5.43;;;4.18;;
9716;SDS011;4897;43.570;27.832;2023-07-20T01:20:50;6.18;;;4.00;;
9716;SDS011;4897;43.570;27.832;2023-07-20T01:23:28;6.00;;;4.20;;
9716;SDS011;4897;43.570;27.832;2023-07-20T01:26:12;6.82;;;4.50;;
9716;SDS011;4897;43.570;27.832;2023-07-20T01:29:10;5.90;;;4.38;;
9716;SDS011;4897;43.570;27.832;2023-07-20T01:31:47;5.38;;;4.00;;
9716;SDS011;4897;43.570;27.832;2023-07-20T01:34:19;6.00;;;4.32;;
9716;SDS011;4897;43.570;27.832;2023-07-20T01:36:49;5.82;;;4.18;;
9716;SDS011;4897;43.570;27.832;2023-07-20T01:39:21;5.65;;;4.20;;
9716;SDS011;4897;43.570;27.832;2023-07-20T01:41:49;6.53;;;4.10;;
9716;SDS011;4897;43.570;27.832;2023-07-20T01:44:16;7.35;;;4.00;;
9716;SDS011;4897;43.570;27.832;2023-07-20T01:46:43;4.47;;;3.83;;
9716;SDS011;4897;43.570;27.832;2023-07-20T01:49:11;5.70;;;4.10;;
9716;SDS011;4897;43.570;27.832;2023-07-20T01:51:38;8.93;;;3.95;;
9716;SDS011;4897;43.570;27.832;2023-07-20T01:54:05;5.55;;;4.00;;
9716;SDS011;4897;43.570;27.832;2023-07-20T01:56:32;17.67;;;3.97;;
9716;SDS011;4897;43.570;27.832;2023-07-20T01:58:59;10.48;;;4.35;;
9716;SDS011;4897;43.570;27.832;2023-07-20T02:01:26;6.47;;;3.97;;
9716;SDS011;4897;43.570;27.832;2023-07-20T02:03:54;12.43;;;4.07;;
9716;SDS011;4897;43.570;27.832;2023-07-20T02:06:22;5.30;;;4.20;;
9716;SDS011;4897;43.570;27.832;2023-07-20T02:08:49;7.03;;;4.25;;
9716;SDS011;4897;43.570;27.832;2023-07-20T02:11:16;7.53;;;4.38;;
9716;SDS011;4897;43.570;27.832;2023-07-20T02:13:43;5.25;;;4.43;;
9716;SDS011;4897;43.570;27.832;2023-07-20T02:16:09;5.43;;;4.22;;
9716;SDS011;4897;43.570;27.832;2023-07-20T02:18:37;4.68;;;4.18;;
9716;SDS011;4897;43.570;27.832;2023-07-20T02:21:04;7.72;;;4.60;;
9716;SDS011;4897;43.570;27.832;2023-07-20T02:23:32;5.80;;;4.10;;
9716;SDS011;4897;43.570;27.832;2023-07-20T02:25:59;4.85;;;3.90;;
9716;SDS011;4897;43.570;27.832;2023-07-20T02:28:26;10.20;;;4.40;;
9716;SDS011;4897;43.570;27.832;2023-07-20T02:30:54;5.10;;;4.40;;
9716;SDS011;4897;43.570;27.832;2023-07-20T02:33:24;4.10;;;3.70;;
9716;SDS011;4897;43.570;27.832;2023-07-20T02:35:51;4.50;;;4.03;;
9716;SDS011;4897;43.570;27.832;2023-07-20T02:38:18;6.18;;;4.50;;
9716;SDS011;4897;43.570;27.832;2023-07-20T02:40:46;6.45;;;4.22;;
9716;SDS011;4897;43.570;27.832;2023-07-20T02:43:13;8.02;;;4.10;;
9716;SDS011;4897;43.570;27.832;2023-07-20T02:45:40;10.85;;;4.38;;
9716;SDS011;4897;43.570;27.832;2023-07-20T02:48:08;5.22;;;4.25;;
9716;SDS011;4897;43.570;27.832;2023-07-20T02:50:35;14.23;;;4.60;;
9716;SDS011;4897;43.570;27.832;2023-07-20T02:53:01;7.60;;;4.63;;
9716;SDS011;4897;43.570;27.832;2023-07-20T02:55:28;6.82;;;4.20;;
9716;SDS011;4897;43.570;27.832;2023-07-20T02:57:56;5.72;;;4.63;;
9716;SDS011;4897;43.570;27.832;2023-07-20T03:00:23;8.45;;;4.78;;
9716;SDS011;4897;43.570;27.832;2023-07-20T03:02:50;9.65;;;4.82;;
9716;SDS011;4897;43.570;27.832;2023-07-20T03:05:21;8.00;;;3.83;;
9716;SDS011;4897;43.570;27.832;2023-07-20T03:07:50;9.07;;;4.05;;
9716;SDS011;4897;43.570;27.832;2023-07-20T03:10:17;12.48;;;4.15;;
9716;SDS011;4897;43.570;27.832;2023-07-20T03:12:44;15.90;;;4.30;;
9716;SDS011;4897;43.570;27.832;2023-07-20T03:15:12;8.15;;;4.22;;
9716;SDS011;4897;43.570;27.832;2023-07-20T03:17:39;11.48;;;4.13;;
9716;SDS011;4897;43.570;27.832;2023-07-20T03:20:07;14.95;;;4.10;;
9716;SDS011;4897;43.570;27.832;2023-07-20T03:22:35;16.90;;;4.18;;
9716;SDS011;4897;43.570;27.832;2023-07-20T03:25:02;15.68;;;4.25;;
9716;SDS011;4897;43.570;27.832;2023-07-20T03:27:30;17.23;;;4.22;;
9716;SDS011;4897;43.570;27.832;2023-07-20T03:29:56;10.63;;;4.03;;
9716;SDS011;4897;43.570;27.832;2023-07-20T03:32:25;9.48;;;3.88;;
9716;SDS011;4897;43.570;27.832;2023-07-20T03:34:52;10.40;;;4.15;;
9716;SDS011;4897;43.570;27.832;2023-07-20T03:37:19;11.48;;;4.38;;
9716;SDS011;4897;43.570;27.832;2023-07-20T03:39:45;12.05;;;4.13;;
9716;SDS011;4897;43.570;27.832;2023-07-20T03:42:14;13.60;;;6.63;;
9716;SDS011;4897;43.570;27.832;2023-07-20T03:44:41;15.23;;;4.40;;
9716;SDS011;4897;43.570;27.832;2023-07-20T03:47:08;18.15;;;9.43;;
9716;SDS011;4897;43.570;27.832;2023-07-20T03:49:41;12.10;;;5.30;;
9716;SDS011;4897;43.570;27.832;2023-07-20T03:52:08;19.17;;;6.00;;
9716;SDS011;4897;43.570;27.832;2023-07-20T03:54:35;21.83;;;5.50;;
9716;SDS011;4897;43.570;27.832;2023-07-20T03:57:02;12.45;;;4.68;;
9716;SDS011;4897;43.570;27.832;2023-07-20T03:59:29;12.23;;;4.32;;
9716;SDS011;4897;43.570;27.832;2023-07-20T04:01:56;9.52;;;4.82;;
9716;SDS011;4897;43.570;27.832;2023-07-20T04:04:23;12.95;;;3.92;;
9716;SDS011;4897;43.570;27.832;2023-07-20T04:06:52;7.85;;;4.13;;
9716;SDS011;4897;43.570;27.832;2023-07-20T04:09:19;7.78;;;3.80;;
9716;SDS011;4897;43.570;27.832;2023-07-20T04:11:46;9.88;;;4.30;;
9716;SDS011;4897;43.570;27.832;2023-07-20T04:14:13;7.90;;;5.07;;
9716;SDS011;4897;43.570;27.832;2023-07-20T04:16:40;9.88;;;4.53;;
9716;SDS011;4897;43.570;27.832;2023-07-20T04:19:10;13.25;;;4.50;;
9716;SDS011;4897;43.570;27.832;2023-07-20T04:21:39;24.38;;;4.38;;
9716;SDS011;4897;43.570;27.832;2023-07-20T04:24:08;14.23;;;4.30;;
9716;SDS011;4897;43.570;27.832;2023-07-20T04:26:35;10.90;;;3.97;;
9716;SDS011;4897;43.570;27.832;2023-07-20T04:29:03;7.80;;;3.97;;
9716;SDS011;4897;43.570;27.832;2023-07-20T04:31:30;10.80;;;4.45;;
9716;SDS011;4897;43.570;27.832;2023-07-20T04:33:58;8.77;;;4.40;;
9716;SDS011;4897;43.570;27.832;2023-07-20T04:36:25;8.57;;;4.72;;
9716;SDS011;4897;43.570;27.832;2023-07-20T04:38:52;11.20;;;4.43;;
9716;SDS011;4897;43.570;27.832;2023-07-20T04:41:20;9.10;;;4.32;;
9716;SDS011;4897;43.570;27.832;2023-07-20T04:43:47;9.82;;;4.20;;
9716;SDS011;4897;43.570;27.832;2023-07-20T04:46:14;7.90;;;4.18;;
9716;SDS011;4897;43.570;27.832;2023-07-20T04:48:42;11.73;;;4.60;;
9716;SDS011;4897;43.570;27.832;2023-07-20T04:51:09;6.45;;;4.15;;
9716;SDS011;4897;43.570;27.832;2023-07-20T04:53:36;9.75;;;4.22;;
9716;SDS011;4897;43.570;27.832;2023-07-20T04:56:03;13.60;;;5.10;;
9716;SDS011;4897;43.570;27.832;2023-07-20T04:58:32;16.80;;;7.90;;
9716;SDS011;4897;43.570;27.832;2023-07-20T05:00:58;21.25;;;7.00;;
9716;SDS011;4897;43.570;27.832;2023-07-20T05:03:25;9.63;;;4.55;;
9716;SDS011;4897;43.570;27.832;2023-07-20T05:05:56;16.02;;;4.30;;
9716;SDS011;4897;43.570;27.832;2023-07-20T05:08:23;13.43;;;4.40;;
9716;SDS011;4897;43.570;27.832;2023-07-20T05:10:50;15.52;;;4.20;;
9716;SDS011;4897;43.570;27.832;2023-07-20T05:13:17;9.88;;;4.45;;
9716;SDS011;4897;43.570;27.832;2023-07-20T05:15:45;13.13;;;4.55;;
9716;SDS011;4897;43.570;27.832;2023-07-20T05:18:12;16.85;;;5.75;;
9716;SDS011;4897;43.570;27.832;2023-07-20T05:20:47;13.52;;;4.30;;
9716;SDS011;4897;43.570;27.832;2023-07-20T05:23:17;17.08;;;4.25;;
9716;SDS011;4897;43.570;27.832;2023-07-20T05:25:44;14.30;;;4.10;;
9716;SDS011;4897;43.570;27.832;2023-07-20T05:28:11;16.35;;;3.63;;
9716;SDS011;4897;43.570;27.832;2023-07-20T05:30:41;8.50;;;3.60;;
9716;SDS011;4897;43.570;27.832;2023-07-20T05:33:10;12.32;;;3.72;;
9716;SDS011;4897;43.570;27.832;2023-07-20T05:35:37;15.38;;;3.83;;
9716;SDS011;4897;43.570;27.832;2023-07-20T05:38:04;17.02;;;3.88;;
9716;SDS011;4897;43.570;27.832;2023-07-20T05:40:31;13.27;;;3.70;;
9716;SDS011;4897;43.570;27.832;2023-07-20T05:42:58;14.57;;;4.15;;
9716;SDS011;4897;43.570;27.832;2023-07-20T05:45:25;10.30;;;4.15;;
9716;SDS011;4897;43.570;27.832;2023-07-20T05:47:52;9.82;;;4.10;;
9716;SDS011;4897;43.570;27.832;2023-07-20T05:50:21;18.33;;;3.85;;
9716;SDS011;4897;43.570;27.832;2023-07-20T05:52:52;15.00;;;3.97;;
9716;SDS011;4897;43.570;27.832;2023-07-20T05:55:19;12.70;;;4.55;;
9716;SDS011;4897;43.570;27.832;2023-07-20T05:57:52;12.85;;;4.25;;
9716;SDS011;4897;43.570;27.832;2023-07-20T06:00:21;11.45;;;4.40;;
9716;SDS011;4897;43.570;27.832;2023-07-20T06:02:51;21.38;;;4.45;;
9716;SDS011;4897;43.570;27.832;2023-07-20T06:05:18;14.82;;;4.53;;
9716;SDS011;4897;43.570;27.832;2023-07-20T06:07:47;10.52;;;4.53;;
9716;SDS011;4897;43.570;27.832;2023-07-20T06:10:13;16.38;;;4.55;;
9716;SDS011;4897;43.570;27.832;2023-07-20T06:12:41;13.05;;;4.70;;
9716;SDS011;4897;43.570;27.832;2023-07-20T06:15:23;17.63;;;4.63;;
9716;SDS011;4897;43.570;27.832;2023-07-20T06:17:51;9.85;;;3.88;;
9716;SDS011;4897;43.570;27.832;2023-07-20T06:20:18;11.35;;;3.70;;
9716;SDS011;4897;43.570;27.832;2023-07-20T06:22:46;15.25;;;4.32;;
9716;SDS011;4897;43.570;27.832;2023-07-20T06:25:13;14.63;;;3.80;;
9716;SDS011;4897;43.570;27.832;2023-07-20T06:27:41;15.30;;;4.53;;
9716;SDS011;4897;43.570;27.832;2023-07-20T06:30:09;11.68;;;4.10;;
9716;SDS011;4897;43.570;27.832;2023-07-20T06:32:37;11.25;;;3.40;;
9716;SDS011;4897;43.570;27.832;2023-07-20T06:35:05;10.15;;;4.00;;
9716;SDS011;4897;43.570;27.832;2023-07-20T06:37:33;14.05;;;4.00;;
9716;SDS011;4897;43.570;27.832;2023-07-20T06:40:03;10.52;;;3.10;;
9716;SDS011;4897;43.570;27.832;2023-07-20T06:42:30;6.95;;;3.97;;
9716;SDS011;4897;43.570;27.832;2023-07-20T06:44:57;10.50;;;3.83;;
9716;SDS011;4897;43.570;27.832;2023-07-20T06:47:27;8.27;;;3.40;;
9716;SDS011;4897;43.570;27.832;2023-07-20T06:49:54;9.18;;;3.47;;
9716;SDS011;4897;43.570;27.832;2023-07-20T06:52:21;16.00;;;3.40;;
9716;SDS011;4897;43.570;27.832;2023-07-20T06:54:50;9.43;;;3.97;;
9716;SDS011;4897;43.570;27.832;2023-07-20T06:57:19;15.30;;;3.70;;
9716;SDS011;4897;43.570;27.832;2023-07-20T07:00:01;9.20;;;3.40;;
9716;SDS011;4897;43.570;27.832;2023-07-20T07:02:34;6.80;;;3.47;;
9716;SDS011;4897;43.570;27.832;2023-07-20T07:05:01;10.85;;;4.30;;
9716;SDS011;4897;43.570;27.832;2023-07-20T07:07:28;20.08;;;7.22;;
9716;SDS011;4897;43.570;27.832;2023-07-20T07:09:55;13.95;;;3.80;;
9716;SDS011;4897;43.570;27.832;2023-07-20T07:12:24;10.02;;;3.85;;
9716;SDS011;4897;43.570;27.832;2023-07-20T07:14:51;9.70;;;3.35;;
9716;SDS011;4897;43.570;27.832;2023-07-20T07:17:18;10.77;;;3.60;;
9716;SDS011;4897;43.570;27.832;2023-07-20T07:19:45;10.07;;;4.30;;
9716;SDS011;4897;43.570;27.832;2023-07-20T07:22:12;9.60;;;3.67;;
9716;SDS011;4897;43.570;27.832;2023-07-20T07:24:40;9.05;;;3.20;;
9716;SDS011;4897;43.570;27.832;2023-07-20T07:27:08;8.88;;;3.42;;
9716;SDS011;4897;43.570;27.832;2023-07-20T07:29:36;9.02;;;3.45;;
9716;SDS011;4897;43.570;27.832;2023-07-20T07:32:03;9.02;;;3.63;;
9716;SDS011;4897;43.570;27.832;2023-07-20T07:34:31;8.27;;;3.30;;
9716;SDS011;4897;43.570;27.832;2023-07-20T07:36:59;13.20;;;3.60;;
9716;SDS011;4897;43.570;27.832;2023-07-20T07:39:26;8.30;;;3.47;;
9716;SDS011;4897;43.570;27.832;2023-07-20T07:41:56;9.32;;;3.20;;
9716;SDS011;4897;43.570;27.832;2023-07-20T07:44:23;6.38;;;3.58;;
9716;SDS011;4897;43.570;27.832;2023-07-20T07:46:51;11.15;;;4.28;;
9716;SDS011;4897;43.570;27.832;2023-07-20T07:49:18;8.52;;;3.88;;
9716;SDS011;4897;43.570;27.832;2023-07-20T07:51:47;10.43;;;3.75;;
9716;SDS011;4897;43.570;27.832;2023-07-20T07:54:14;11.63;;;4.18;;
9716;SDS011;4897;43.570;27.832;2023-07-20T07:56:41;8.85;;;3.42;;
9716;SDS011;4897;43.570;27.832;2023-07-20T07:59:09;11.32;;;3.80;;
9716;SDS011;4897;43.570;27.832;2023-07-20T08:01:36;10.05;;;3.83;;
9716;SDS011;4897;43.570;27.832;2023-07-20T08:04:05;11.35;;;3.40;;
9716;SDS011;4897;43.570;27.832;2023-07-20T08:06:32;12.38;;;3.95;;
9716;SDS011;4897;43.570;27.832;2023-07-20T08:08:58;9.90;;;4.43;;
9716;SDS011;4897;43.570;27.832;2023-07-20T08:11:25;7.20;;;3.72;;
9716;SDS011;4897;43.570;27.832;2023-07-20T08:13:52;9.65;;;3.80;;
9716;SDS011;4897;43.570;27.832;2023-07-20T08:16:19;11.05;;;3.88;;
9716;SDS011;4897;43.570;27.832;2023-07-20T08:18:46;13.80;;;4.10;;
9716;SDS011;4897;43.570;27.832;2023-07-20T08:21:15;7.63;;;3.72;;
9716;SDS011;4897;43.570;27.832;2023-07-20T08:23:42;6.93;;;3.47;;
9716;SDS011;4897;43.570;27.832;2023-07-20T08:26:09;5.82;;;2.85;;
9716;SDS011;4897;43.570;27.832;2023-07-20T08:28:39;14.93;;;5.75;;
9716;SDS011;4897;43.570;27.832;2023-07-20T08:31:06;8.65;;;3.13;;
9716;SDS011;4897;43.570;27.832;2023-07-20T08:33:33;6.70;;;2.63;;
9716;SDS011;4897;43.570;27.832;2023-07-20T08:36:00;5.38;;;2.72;;
9716;SDS011;4897;43.570;27.832;2023-07-20T08:38:30;5.95;;;2.75;;
9716;SDS011;4897;43.570;27.832;2023-07-20T08:40:57;9.02;;;3.17;;
9716;SDS011;4897;43.570;27.832;2023-07-20T08:43:25;9.20;;;3.10;;
9716;SDS011;4897;43.570;27.832;2023-07-20T08:45:54;6.82;;;2.97;;
9716;SDS011;4897;43.570;27.832;2023-07-20T08:48:24;7.55;;;2.78;;
9716;SDS011;4897;43.570;27.832;2023-07-20T08:50:53;6.43;;;3.17;;
9716;SDS011;4897;43.570;27.832;2023-07-20T08:53:21;6.07;;;2.65;;
9716;SDS011;4897;43.570;27.832;2023-07-20T08:55:50;7.97;;;3.45;;
9716;SDS011;4897;43.570;27.832;2023-07-20T08:58:17;6.63;;;2.67;;
9716;SDS011;4897;43.570;27.832;2023-07-20T09:00:45;7.60;;;2.92;;
9716;SDS011;4897;43.570;27.832;2023-07-20T09:03:15;9.25;;;2.83;;
9716;SDS011;4897;43.570;27.832;2023-07-20T09:05:42;4.97;;;2.50;;
9716;SDS011;4897;43.570;27.832;2023-07-20T09:08:10;8.90;;;2.88;;
9716;SDS011;4897;43.570;27.832;2023-07-20T09:10:37;7.55;;;2.50;;
9716;SDS011;4897;43.570;27.832;2023-07-20T09:13:06;7.65;;;2.65;;
9716;SDS011;4897;43.570;27.832;2023-07-20T09:15:33;8.45;;;2.65;;
9716;SDS011;4897;43.570;27.832;2023-07-20T09:18:00;5.28;;;2.40;;
9716;SDS011;4897;43.570;27.832;2023-07-20T09:20:30;2.88;;;2.10;;
9716;SDS011;4897;43.570;27.832;2023-07-20T09:23:04;3.25;;;2.30;;
9716;SDS011;4897;43.570;27.832;2023-07-20T09:25:33;4.57;;;2.40;;
9716;SDS011;4897;43.570;27.832;2023-07-20T09:28:02;5.82;;;2.58;;
9716;SDS011;4897;43.570;27.832;2023-07-20T09:30:31;7.70;;;2.92;;
9716;SDS011;4897;43.570;27.832;2023-07-20T09:32:58;5.43;;;2.70;;
9716;SDS011;4897;43.570;27.832;2023-07-20T09:35:25;8.70;;;2.50;;
9716;SDS011;4897;43.570;27.832;2023-07-20T09:37:54;4.57;;;2.28;;
9716;SDS011;4897;43.570;27.832;2023-07-20T09:40:24;8.43;;;3.45;;
9716;SDS011;4897;43.570;27.832;2023-07-20T09:42:51;4.53;;;2.33;;
9716;SDS011;4897;43.570;27.832;2023-07-20T09:45:27;6.68;;;2.75;;
9716;SDS011;4897;43.570;27.832;2023-07-20T09:48:02;6.47;;;2.50;;
9716;SDS011;4897;43.570;27.832;2023-07-20T09:50:29;7.22;;;2.58;;
9716;SDS011;4897;43.570;27.832;2023-07-20T09:52:56;4.20;;;2.40;;
9716;SDS011;4897;43.570;27.832;2023-07-20T09:55:25;4.75;;;2.38;;
9716;SDS011;4897;43.570;27.832;2023-07-20T09:57:53;6.45;;;2.58;;
9716;SDS011;4897;43.570;27.832;2023-07-20T10:00:21;3.60;;;2.20;;
9716;SDS011;4897;43.570;27.832;2023-07-20T10:02:47;7.15;;;2.70;;
9716;SDS011;4897;43.570;27.832;2023-07-20T10:05:19;4.90;;;2.10;;
9716;SDS011;4897;43.570;27.832;2023-07-20T10:07:47;8.77;;;2.80;;
9716;SDS011;4897;43.570;27.832;2023-07-20T10:10:16;5.30;;;2.00;;
9716;SDS011;4897;43.570;27.832;2023-07-20T10:12:44;3.30;;;2.33;;
9716;SDS011;4897;43.570;27.832;2023-07-20T10:15:18;5.47;;;2.72;;
9716;SDS011;4897;43.570;27.832;2023-07-20T10:17:55;4.07;;;2.22;;
9716;SDS011;4897;43.570;27.832;2023-07-20T10:20:27;5.65;;;3.72;;
9716;SDS011;4897;43.570;27.832;2023-07-20T10:22:56;7.20;;;2.20;;
9716;SDS011;4897;43.570;27.832;2023-07-20T10:25:23;7.63;;;2.50;;
9716;SDS011;4897;43.570;27.832;2023-07-20T10:27:56;5.38;;;2.08;;
9716;SDS011;4897;43.570;27.832;2023-07-20T10:30:26;4.55;;;2.10;;
9716;SDS011;4897;43.570;27.832;2023-07-20T10:32:53;3.00;;;2.00;;
9716;SDS011;4897;43.570;27.832;2023-07-20T10:35:21;3.60;;;2.28;;
9716;SDS011;4897;43.570;27.832;2023-07-20T10:37:50;7.13;;;2.33;;
9716;SDS011;4897;43.570;27.832;2023-07-20T10:40:28;6.43;;;2.28;;
9716;SDS011;4897;43.570;27.832;2023-07-20T10:43:03;2.47;;;1.83;;
9716;SDS011;4897;43.570;27.832;2023-07-20T10:48:19;6.13;;;2.10;;
9716;SDS011;4897;43.570;27.832;2023-07-20T10:53:37;5.45;;;2.10;;
9716;SDS011;4897;43.570;27.832;2023-07-20T10:56:07;5.20;;;2.28;;
9716;SDS011;4897;43.570;27.832;2023-07-20T10:58:35;4.82;;;2.30;;
9716;SDS011;4897;43.570;27.832;2023-07-20T11:01:05;5.30;;;2.55;;
9716;SDS011;4897;43.570;27.832;2023-07-20T11:03:32;4.13;;;2.15;;
9716;SDS011;4897;43.570;27.832;2023-07-20T11:06:01;3.22;;;2.10;;
9716;SDS011;4897;43.570;27.832;2023-07-20T11:09:08;5.40;;;2.10;;
9716;SDS011;4897;43.570;27.832;2023-07-20T11:11:40;3.75;;;2.33;;
9716;SDS011;4897;43.570;27.832;2023-07-20T11:14:08;16.02;;;13.90;;
9716;SDS011;4897;43.570;27.832;2023-07-20T11:16:40;6.95;;;2.25;;
9716;SDS011;4897;43.570;27.832;2023-07-20T11:19:18;5.65;;;2.35;;
9716;SDS011;4897;43.570;27.832;2023-07-20T11:21:49;4.25;;;2.53;;
9716;SDS011;4897;43.570;27.832;2023-07-20T11:24:18;5.00;;;2.30;;
9716;SDS011;4897;43.570;27.832;2023-07-20T11:26:49;5.30;;;2.25;;
9716;SDS011;4897;43.570;27.832;2023-07-20T11:29:17;6.03;;;2.60;;
9716;SDS011;4897;43.570;27.832;2023-07-20T11:31:45;6.85;;;2.53;;
9716;SDS011;4897;43.570;27.832;2023-07-20T11:34:13;5.75;;;2.47;;
9716;SDS011;4897;43.570;27.832;2023-07-20T11:36:42;4.15;;;2.60;;
9716;SDS011;4897;43.570;27.832;2023-07-20T11:39:10;5.93;;;2.55;;
9716;SDS011;4897;43.570;27.832;2023-07-20T11:41:43;7.75;;;2.90;;
9716;SDS011;4897;43.570;27.832;2023-07-20T11:44:11;3.90;;;2.40;;
9716;SDS011;4897;43.570;27.832;2023-07-20T11:46:40;6.00;;;2.17;;
9716;SDS011;4897;43.570;27.832;2023-07-20T11:49:09;5.13;;;2.85;;
9716;SDS011;4897;43.570;27.832;2023-07-20T11:51:36;6.45;;;2.53;;
9716;SDS011;4897;43.570;27.832;2023-07-20T11:54:05;5.75;;;2.60;;
9716;SDS011;4897;43.570;27.832;2023-07-20T11:56:33;9.88;;;2.35;;
9716;SDS011;4897;43.570;27.832;2023-07-20T11:59:02;4.82;;;2.42;;
9716;SDS011;4897;43.570;27.832;2023-07-20T12:01:29;5.53;;;2.33;;
9716;SDS011;4897;43.570;27.832;2023-07-20T12:03:59;3.83;;;2.45;;
9716;SDS011;4897;43.570;27.832;2023-07-20T12:06:28;4.35;;;2.33;;
9716;SDS011;4897;43.570;27.832;2023-07-20T12:09:01;5.13;;;3.00;;
9716;SDS011;4897;43.570;27.832;2023-07-20T12:11:34;8.40;;;3.03;;
9716;SDS011;4897;43.570;27.832;2023-07-20T12:14:02;4.60;;;2.70;;
9716;SDS011;4897;43.570;27.832;2023-07-20T12:16:36;3.80;;;2.45;;
9716;SDS011;4897;43.570;27.832;2023-07-20T12:19:04;4.90;;;2.95;;
9716;SDS011;4897;43.570;27.832;2023-07-20T12:21:34;3.92;;;2.42;;
9716;SDS011;4897;43.570;27.832;2023-07-20T12:24:02;4.57;;;2.47;;
9716;SDS011;4897;43.570;27.832;2023-07-20T12:26:30;6.57;;;2.90;;
9716;SDS011;4897;43.570;27.832;2023-07-20T12:28:58;5.32;;;2.53;;
9716;SDS011;4897;43.570;27.832;2023-07-20T12:31:26;4.65;;;2.50;;
9716;SDS011;4897;43.570;27.832;2023-07-20T12:33:55;3.40;;;2.40;;
9716;SDS011;4897;43.570;27.832;2023-07-20T12:36:23;3.97;;;2.70;;
9716;SDS011;4897;43.570;27.832;2023-07-20T12:38:51;4.95;;;2.60;;
9716;SDS011;4897;43.570;27.832;2023-07-20T12:41:20;6.45;;;2.30;;
9716;SDS011;4897;43.570;27.832;2023-07-20T12:43:47;7.20;;;2.80;;
9716;SDS011;4897;43.570;27.832;2023-07-20T12:46:15;6.40;;;2.53;;
9716;SDS011;4897;43.570;27.832;2023-07-20T12:48:43;4.30;;;2.50;;
9716;SDS011;4897;43.570;27.832;2023-07-20T12:51:11;5.05;;;2.40;;
9716;SDS011;4897;43.570;27.832;2023-07-20T12:53:38;6.25;;;2.30;;
9716;SDS011;4897;43.570;27.832;2023-07-20T12:56:05;4.85;;;2.30;;
9716;SDS011;4897;43.570;27.832;2023-07-20T12:58:32;5.38;;;2.40;;
9716;SDS011;4897;43.570;27.832;2023-07-20T13:01:02;5.00;;;2.65;;
9716;SDS011;4897;43.570;27.832;2023-07-20T13:03:29;4.03;;;2.70;;
9716;SDS011;4897;43.570;27.832;2023-07-20T13:05:57;3.58;;;2.33;;
9716;SDS011;4897;43.570;27.832;2023-07-20T13:08:25;4.15;;;2.40;;
9716;SDS011;4897;43.570;27.832;2023-07-20T13:10:52;3.47;;;2.40;;
9716;SDS011;4897;43.570;27.832;2023-07-20T13:13:19;6.45;;;2.58;;
9716;SDS011;4897;43.570;27.832;2023-07-20T13:15:46;4.68;;;2.28;;
9716;SDS011;4897;43.570;27.832;2023-07-20T13:18:14;6.80;;;2.72;;
9716;SDS011;4897;43.570;27.832;2023-07-20T13:20:41;4.57;;;2.40;;
9716;SDS011;4897;43.570;27.832;2023-07-20T13:23:09;6.72;;;2.70;;
9716;SDS011;4897;43.570;27.832;2023-07-20T13:25:36;7.32;;;2.50;;
9716;SDS011;4897;43.570;27.832;2023-07-20T13:28:03;4.15;;;2.42;;
9716;SDS011;4897;43.570;27.832;2023-07-20T13:30:31;4.45;;;2.58;;
9716;SDS011;4897;43.570;27.832;2023-07-20T13:32:58;5.15;;;2.53;;
9716;SDS011;4897;43.570;27.832;2023-07-20T13:35:25;4.43;;;2.40;;
9716;SDS011;4897;43.570;27.832;2023-07-20T13:37:52;5.53;;;2.53;;
9716;SDS011;4897;43.570;27.832;2023-07-20T13:40:20;4.45;;;2.47;;
9716;SDS011;4897;43.570;27.832;2023-07-20T13:42:48;5.35;;;2.50;;
9716;SDS011;4897;43.570;27.832;2023-07-20T13:45:15;4.63;;;2.67;;
9716;SDS011;4897;43.570;27.832;2023-07-20T13:47:42;6.22;;;2.40;;
9716;SDS011;4897;43.570;27.832;2023-07-20T13:50:10;5.07;;;2.30;;
9716;SDS011;4897;43.570;27.832;2023-07-20T13:52:36;6.97;;;2.88;;
9716;SDS011;4897;43.570;27.832;2023-07-20T13:55:06;5.95;;;2.38;;
9716;SDS011;4897;43.570;27.832;2023-07-20T13:57:35;5.40;;;2.70;;
9716;SDS011;4897;43.570;27.832;2023-07-20T14:00:02;4.25;;;2.72;;
9716;SDS011;4897;43.570;27.832;2023-07-20T14:02:30;6.95;;;2.53;;
9716;SDS011;4897;43.570;27.832;2023-07-20T14:04:57;5.05;;;2.33;;
9716;SDS011;4897;43.570;27.832;2023-07-20T14:07:25;5.88;;;2.55;;
9716;SDS011;4897;43.570;27.832;2023-07-20T14:09:52;3.83;;;2.13;;
9716;SDS011;4897;43.570;27.832;2023-07-20T14:12:19;4.93;;;2.53;;
9716;SDS011;4897;43.570;27.832;2023-07-20T14:14:47;7.68;;;2.97;;
9716;SDS011;4897;43.570;27.832;2023-07-20T14:17:14;4.50;;;2.90;;
9716;SDS011;4897;43.570;27.832;2023-07-20T14:19:41;5.80;;;3.00;;
9716;SDS011;4897;43.570;27.832;2023-07-20T14:22:08;6.82;;;2.78;;
9716;SDS011;4897;43.570;27.832;2023-07-20T14:24:35;7.72;;;3.05;;
9716;SDS011;4897;43.570;27.832;2023-07-20T14:27:02;5.25;;;3.05;;
9716;SDS011;4897;43.570;27.832;2023-07-20T14:29:29;7.13;;;2.85;;
9716;SDS011;4897;43.570;27.832;2023-07-20T14:31:59;6.80;;;3.28;;
9716;SDS011;4897;43.570;27.832;2023-07-20T14:34:26;5.47;;;2.67;;
9716;SDS011;4897;43.570;27.832;2023-07-20T14:36:53;6.57;;;3.30;;
9716;SDS011;4897;43.570;27.832;2023-07-20T14:39:20;5.00;;;3.15;;
9716;SDS011;4897;43.570;27.832;2023-07-20T14:41:47;5.63;;;2.97;;
9716;SDS011;4897;43.570;27.832;2023-07-20T14:44:16;5.07;;;3.00;;
9716;SDS011;4897;43.570;27.832;2023-07-20T14:46:43;5.57;;;3.15;;
9716;SDS011;4897;43.570;27.832;2023-07-20T14:49:11;4.75;;;2.95;;
9716;SDS011;4897;43.570;27.832;2023-07-20T14:51:38;6.90;;;2.75;;
9716;SDS011;4897;43.570;27.832;2023-07-20T14:54:08;5.65;;;2.85;;
9716;SDS011;4897;43.570;27.832;2023-07-20T14:56:37;4.45;;;2.90;;
9716;SDS011;4897;43.570;27.832;2023-07-20T14:59:04;4.60;;;2.65;;
9716;SDS011;4897;43.570;27.832;2023-07-20T15:01:32;5.05;;;2.88;;
9716;SDS011;4897;43.570;27.832;2023-07-20T15:03:59;7.35;;;2.80;;
9716;SDS011;4897;43.570;27.832;2023-07-20T15:06:27;6.25;;;2.40;;
9716;SDS011;4897;43.570;27.832;2023-07-20T15:08:55;4.88;;;2.53;;
9716;SDS011;4897;43.570;27.832;2023-07-20T15:11:23;4.30;;;2.78;;